createdAt,value
2023-03-06T00:02:57.988Z,99873.66
2023-03-06T00:08:00.210Z,99880.75
2023-03-06T00:13:05.629Z,99887.84
2023-03-06T00:18:08.475Z,99866.56
2023-03-06T00:23:11.063Z,99866.66
2023-03-06T00:28:15.790Z,99880.91
2023-03-06T00:33:18.133Z,99881.91
2023-03-06T00:38:20.282Z,99868.16
2023-03-06T00:43:22.347Z,99869.06
2023-03-06T00:48:24.496Z,99847.63
2023-03-06T00:53:26.657Z,99864.13
2023-03-06T00:58:28.753Z,99858.69
2023-03-06T01:03:30.870Z,99866.09
2023-03-06T01:08:33.098Z,99857.59
2023-03-06T01:13:35.371Z,99857.69
2023-03-06T01:18:37.853Z,99839.56
2023-03-06T01:23:40.379Z,99822.75
2023-03-06T01:28:42.517Z,99831.22
2023-03-06T01:33:45.406Z,99816.50
2023-03-06T01:38:47.531Z,99829.91
2023-03-06T01:43:49.927Z,99828.59
2023-03-06T01:49:00.994Z,99822.44
2023-03-06T01:54:08.997Z,99812.28
2023-03-06T01:59:11.319Z,99819.19
2023-03-06T02:04:14.105Z,99820.75
2023-03-06T02:09:16.623Z,99826.44
2023-03-06T02:14:18.775Z,99816.56
2023-03-06T02:19:33.427Z,99804.47
2023-03-06T02:24:58.483Z,99821.41
2023-03-06T02:30:00.794Z,99815.66
2023-03-06T02:35:04.011Z,99810.87
2023-03-06T02:40:14.585Z,99812.84
2023-03-06T02:45:23.765Z,99794.16
2023-03-06T02:50:25.881Z,99800.31
2023-03-06T02:55:27.949Z,99810.63
2023-03-06T03:00:30.956Z,99819.53
2023-03-06T03:05:33.306Z,99818.09
2023-03-06T03:10:35.405Z,99809.22
2023-03-06T03:15:37.553Z,99799.16
2023-03-06T03:20:43.276Z,99814.50
2023-03-06T03:25:45.414Z,99804.38
2023-03-06T03:30:47.626Z,99807.16
2023-03-06T03:35:57.277Z,99812.19
2023-03-06T03:41:01.650Z,99806.97
2023-03-06T03:46:03.980Z,99802.13
2023-03-06T03:51:12.204Z,99802.37
2023-03-06T03:56:14.367Z,99796.69
2023-03-06T04:01:16.473Z,99796.94
2023-03-06T04:06:19.083Z,99796.00
2023-03-06T04:11:21.228Z,99800.94
2023-03-06T04:16:23.510Z,99795.34
2023-03-06T04:21:25.987Z,99796.09
2023-03-06T04:26:28.108Z,99801.78
2023-03-06T04:31:30.369Z,99813.84
2023-03-06T04:36:34.441Z,99801.22
2023-03-06T04:41:36.598Z,99797.09
2023-03-06T04:46:38.921Z,99799.66
2023-03-06T04:51:41.125Z,99800.12
2023-03-06T04:56:43.229Z,99802.13
2023-03-06T05:01:45.420Z,99794.03
2023-03-06T05:06:47.570Z,99796.09
2023-03-06T05:11:49.658Z,99771.47
2023-03-06T05:16:51.744Z,99773.31
2023-03-06T05:21:53.880Z,99799.56
2023-03-06T05:26:56.054Z,99789.19
2023-03-06T05:31:58.992Z,99792.44
2023-03-06T05:37:01.822Z,99803.81
2023-03-06T05:42:04.186Z,99789.31
2023-03-06T05:47:06.382Z,99800.84
2023-03-06T05:52:09.648Z,99779.34
2023-03-06T05:57:11.973Z,99804.50
2023-03-06T06:02:15.405Z,99802.19
2023-03-06T06:07:17.744Z,99780.28
2023-03-06T06:12:20.473Z,99803.34
2023-03-06T06:17:22.772Z,99816.44
2023-03-06T06:22:30.945Z,99821.72
2023-03-06T06:27:33.149Z,99811.00
2023-03-06T06:32:36.321Z,99818.66
2023-03-06T06:37:38.542Z,99823.84
2023-03-06T06:42:40.900Z,99814.38
2023-03-06T06:47:43.622Z,99816.78
2023-03-06T06:52:45.891Z,99810.84
2023-03-06T06:57:47.981Z,99813.16
2023-03-06T07:02:51.279Z,99822.69
2023-03-06T07:07:53.394Z,99799.06
2023-03-06T07:12:56.812Z,99810.41
2023-03-06T07:18:00.745Z,99828.59
2023-03-06T07:23:03.891Z,99828.97
2023-03-06T07:28:06.112Z,99840.19
2023-03-06T07:33:08.824Z,99840.22
2023-03-06T07:38:11.534Z,99845.94
2023-03-06T07:43:19.512Z,99842.31
2023-03-06T07:48:21.993Z,99839.56
2023-03-06T07:53:24.778Z,99840.97
2023-03-06T07:58:26.940Z,99838.94
2023-03-06T08:03:29.164Z,99841.53
2023-03-06T08:08:31.312Z,99856.06
2023-03-06T08:13:33.805Z,99866.41
2023-03-06T08:18:39.615Z,99845.50
2023-03-06T08:23:43.067Z,99852.84
2023-03-06T08:28:47.649Z,99850.78
2023-03-06T08:33:49.741Z,99850.41
2023-03-06T08:38:52.453Z,99851.88
2023-03-06T08:43:54.651Z,99856.00
2023-03-06T08:48:57.156Z,99839.31
2023-03-06T08:53:59.562Z,99832.75
2023-03-06T08:59:03.897Z,99847.44
2023-03-06T09:04:09.235Z,99837.03
2023-03-06T09:09:13.271Z,99854.91
2023-03-06T09:14:15.384Z,99834.44
2023-03-06T09:19:17.841Z,99826.72
2023-03-06T09:24:20.102Z,99807.72
2023-03-06T09:29:22.224Z,99820.53
2023-03-06T09:34:24.416Z,99803.19
2023-03-06T09:39:27.333Z,99800.81
2023-03-06T09:44:32.430Z,99791.66
2023-03-06T09:49:48.364Z,99773.16
2023-03-06T09:54:57.282Z,99788.13
2023-03-06T10:00:05.727Z,99772.66
2023-03-06T10:05:15.495Z,99773.94
2023-03-06T10:10:24.094Z,99776.91
2023-03-06T10:15:32.703Z,99786.59
2023-03-06T10:20:41.319Z,99768.09
2023-03-06T10:26:02.347Z,99783.00
2023-03-06T10:31:25.025Z,99784.41
2023-03-06T10:36:28.720Z,99782.66
2023-03-06T10:41:35.810Z,99775.25
2023-03-06T10:46:44.529Z,99778.59
2023-03-06T10:52:21.699Z,99764.37
2023-03-06T10:57:31.363Z,99754.25
2023-03-06T11:02:41.023Z,99734.56
2023-03-06T11:08:00.267Z,99721.66
2023-03-06T11:13:09.009Z,99719.66
2023-03-06T11:18:11.081Z,99709.41
2023-03-06T11:23:18.038Z,99697.44
2023-03-06T11:28:40.863Z,99679.88
2023-03-06T11:33:48.911Z,99668.41
2023-03-06T11:38:53.327Z,99658.81
2023-03-06T11:44:17.947Z,99643.09
2023-03-06T11:49:27.642Z,99641.44
2023-03-06T11:54:30.033Z,99613.31
2023-03-06T11:59:55.809Z,99602.13
2023-03-06T12:05:22.667Z,99604.69
2023-03-06T12:10:51.734Z,99586.88
2023-03-06T12:15:54.357Z,99587.56
2023-03-06T12:21:18.314Z,99570.22
2023-03-06T12:26:51.449Z,99571.88
2023-03-06T12:32:03.541Z,99560.84
2023-03-06T12:37:20.855Z,99577.28
2023-03-06T12:42:25.926Z,99559.94
2023-03-06T12:47:31.516Z,99571.28
2023-03-06T12:52:34.703Z,99552.19
2023-03-06T12:57:36.832Z,99563.25
2023-03-06T13:03:14.563Z,99554.25
2023-03-06T13:08:38.222Z,99558.37
2023-03-06T13:13:45.780Z,99559.81
2023-03-06T13:19:00.843Z,99552.97
2023-03-06T13:24:06.306Z,99548.06
2023-03-06T13:29:36.425Z,99542.28
2023-03-06T13:34:40.486Z,99534.38
2023-03-06T13:40:15.243Z,99526.31
2023-03-06T13:45:27.467Z,99519.22
2023-03-06T13:50:37.956Z,99512.87
2023-03-06T13:55:58.718Z,99515.25
2023-03-06T14:01:27.940Z,99499.16
2023-03-06T14:06:36.366Z,99495.69
2023-03-06T14:11:50.482Z,99480.97
2023-03-06T14:16:53.687Z,99506.16
2023-03-06T14:21:57.702Z,99485.66
2023-03-06T14:27:00.155Z,99495.28
2023-03-06T14:32:02.819Z,99495.28
2023-03-06T14:37:19.124Z,99494.84
2023-03-06T14:42:25.176Z,99494.28
2023-03-06T14:47:33.273Z,99476.41
2023-03-06T14:52:36.431Z,99477.75
2023-03-06T14:57:38.734Z,99464.28
2023-03-06T15:02:41.185Z,99476.69
2023-03-06T15:07:43.986Z,99459.22
2023-03-06T15:12:50.812Z,99475.34
2023-03-06T15:17:53.522Z,99469.03
2023-03-06T15:22:55.661Z,99446.38
2023-03-06T15:27:59.193Z,99467.19
2023-03-06T15:33:18.502Z,99453.25
2023-03-06T15:38:37.042Z,99456.84
2023-03-06T15:43:41.000Z,99461.78
2023-03-06T15:49:04.258Z,99459.87
2023-03-06T15:54:12.196Z,99452.53
2023-03-06T15:59:25.998Z,99463.97
2023-03-06T16:04:28.156Z,99470.22
2023-03-06T16:09:30.278Z,99474.63
2023-03-06T16:14:32.568Z,99465.81
2023-03-06T16:19:34.780Z,99471.84
2023-03-06T16:24:37.295Z,99481.63
2023-03-06T16:29:40.071Z,99478.81
2023-03-06T16:34:42.175Z,99475.00
2023-03-06T16:39:44.781Z,99459.44
2023-03-06T16:44:47.031Z,99473.34
2023-03-06T16:49:49.900Z,99493.59
2023-03-06T16:54:52.110Z,99465.44
2023-03-06T16:59:54.195Z,99485.09
2023-03-06T17:04:56.341Z,99494.66
2023-03-06T17:09:58.445Z,99490.56
2023-03-06T17:15:03.078Z,99488.06
2023-03-06T17:20:08.119Z,99488.88
2023-03-06T17:25:10.566Z,99492.97
2023-03-06T17:30:16.306Z,99483.94
2023-03-06T17:35:18.933Z,99463.44
2023-03-06T17:40:21.054Z,99484.13
2023-03-06T17:45:23.591Z,99478.09
2023-03-06T17:50:25.664Z,99477.78
2023-03-06T17:55:28.973Z,99478.56
2023-03-06T18:00:31.178Z,99475.50
2023-03-06T18:05:33.327Z,99484.47
2023-03-06T18:10:38.231Z,99489.06
2023-03-06T18:15:40.923Z,99486.38
2023-03-06T18:20:44.712Z,99475.09
2023-03-06T18:25:48.777Z,99494.78
2023-03-06T18:30:50.911Z,99490.91
2023-03-06T18:35:53.619Z,99460.75
2023-03-06T18:40:55.800Z,99480.44
2023-03-06T18:45:58.644Z,99492.75
2023-03-06T18:51:09.271Z,99480.69
2023-03-06T18:56:22.030Z,99477.41
2023-03-06T19:01:30.871Z,99482.31
2023-03-06T19:06:33.290Z,99455.50
2023-03-06T19:11:38.195Z,99467.81
2023-03-06T19:16:40.881Z,99466.97
2023-03-06T19:21:45.464Z,99470.09
2023-03-06T19:26:47.679Z,99465.66
2023-03-06T19:31:52.455Z,99463.44
2023-03-06T19:36:55.079Z,99461.47
2023-03-06T19:41:57.316Z,99470.75
2023-03-06T19:46:59.545Z,99463.38
2023-03-06T19:52:02.132Z,99473.91
2023-03-06T19:57:04.282Z,99454.50
2023-03-06T20:02:06.686Z,99442.06
2023-03-06T20:07:08.906Z,99456.56
2023-03-06T20:12:11.105Z,99447.75
2023-03-06T20:17:13.295Z,99460.94
2023-03-06T20:22:15.591Z,99461.47
2023-03-06T20:27:17.830Z,99461.50
2023-03-06T20:32:20.068Z,99459.87
2023-03-06T20:37:22.227Z,99459.63
2023-03-06T20:42:24.350Z,99478.59
2023-03-06T20:47:27.010Z,99482.84
2023-03-06T20:52:29.257Z,99481.94
2023-03-06T20:57:31.366Z,99482.75
2023-03-06T21:02:33.568Z,99487.88
2023-03-06T21:07:36.043Z,99457.47
2023-03-06T21:12:38.120Z,99457.28
2023-03-06T21:17:40.190Z,99440.41
2023-03-06T21:22:42.256Z,99452.75
2023-03-06T21:27:44.405Z,99470.41
2023-03-06T21:32:46.796Z,99479.12
2023-03-06T21:37:49.246Z,99480.16
2023-03-06T21:42:51.715Z,99478.50
2023-03-06T21:47:53.857Z,99484.66
2023-03-06T21:52:59.116Z,99460.25
2023-03-06T21:58:01.562Z,99476.41
2023-03-06T22:03:04.910Z,99472.91
2023-03-06T22:08:07.140Z,99467.50
2023-03-06T22:13:11.282Z,99466.72
2023-03-06T22:18:15.955Z,99471.72
2023-03-06T22:23:18.617Z,99467.03
2023-03-06T22:29:03.298Z,99469.16
2023-03-06T22:34:10.396Z,99467.50
2023-03-06T22:39:17.650Z,99466.31
2023-03-06T22:44:32.424Z,99462.06
2023-03-06T23:20:52.061Z,99475.19
2023-03-06T23:26:02.052Z,99481.25
2023-03-06T23:31:15.318Z,99482.91
2023-03-06T23:36:18.758Z,99473.19
2023-03-06T23:41:24.089Z,99468.19
2023-03-06T23:46:26.562Z,99472.12
2023-03-06T23:51:28.705Z,99458.22
2023-03-06T23:56:30.860Z,99464.66
